Time;durP1;ratioP1;P1;durP2;ratioP2;P2;SDS_P1;SDS_P2;PMS_P1;PMS_P2;Temp;Humidity;BMP_temperature;BMP_pressure;BME280_temperature;BME280_humidity;BME280_pressure;Samples;Min_cycle;Max_cycle;Signal;HPM_P1;HPM_P2
2021/07/03 00:01:54;;;;;;;10.05;7.47;;;;;;;22.09;100.00;96481.69;5063052;28;20100;-57
2021/07/03 00:04:23;;;;;;;9.68;7.70;;;;;;;21.97;100.00;96468.13;5065818;28;20110;-56
2021/07/03 00:06:51;;;;;;;9.40;7.60;;;;;;;22.06;100.00;96472.22;5059424;28;20068;-53
2021/07/03 00:09:21;;;;;;;10.40;8.13;;;;;;;21.39;100.00;96477.09;5056001;28;20072;-51
2021/07/03 00:11:50;;;;;;;11.13;8.05;;;;;;;21.43;100.00;96480.16;5058926;28;20060;-56
2021/07/03 00:14:19;;;;;;;10.43;7.97;;;;;;;22.13;100.00;96472.19;5053137;28;20060;-54
2021/07/03 00:16:48;;;;;;;10.85;7.97;;;;;;;22.10;100.00;96472.59;5059226;28;20620;-54
2021/07/03 00:19:16;;;;;;;10.10;7.70;;;;;;;21.92;100.00;96470.63;5062613;28;20080;-56
2021/07/03 00:21:45;;;;;;;10.35;6.95;;;;;;;21.93;100.00;96469.63;5062032;28;20077;-55
2021/07/03 00:24:13;;;;;;;9.13;6.13;;;;;;;21.45;100.00;96465.50;5052921;28;20109;-54
2021/07/03 00:26:43;;;;;;;7.78;6.30;;;;;;;21.17;100.00;96470.34;5062395;28;20064;-55
2021/07/03 00:29:11;;;;;;;7.55;6.28;;;;;;;20.47;100.00;96484.19;5056374;28;20065;-52
2021/07/03 00:31:40;;;;;;;7.80;6.35;;;;;;;21.38;100.00;96467.41;5064400;28;20107;-56
2021/07/03 00:34:08;;;;;;;11.50;6.78;;;;;;;21.26;100.00;96466.38;5058745;28;20076;-54
2021/07/03 00:36:37;;;;;;;9.05;7.30;;;;;;;21.08;100.00;96462.50;5061335;28;20079;-54
2021/07/03 00:39:05;;;;;;;9.90;7.75;;;;;;;21.24;100.00;96447.81;5058524;28;20064;-56
2021/07/03 00:41:34;;;;;;;7.90;6.75;;;;;;;21.55;100.00;96449.78;5062672;28;20497;-56
2021/07/03 00:44:04;;;;;;;10.05;6.60;;;;;;;21.52;100.00;96452.06;5053552;28;20466;-52
2021/07/03 00:46:32;;;;;;;7.88;5.97;;;;;;;21.02;100.00;96451.78;5065930;28;20521;-55
2021/07/03 00:49:00;;;;;;;7.43;5.53;;;;;;;20.65;100.00;96453.31;5060403;28;20553;-57
2021/07/03 00:51:29;;;;;;;9.10;6.07;;;;;;;20.70;100.00;96457.03;5060408;28;20068;-54
2021/07/03 00:53:57;;;;;;;8.75;6.03;;;;;;;20.26;100.00;96455.78;5058150;28;20091;-52
2021/07/03 00:56:27;;;;;;;5.70;4.45;;;;;;;20.40;100.00;96456.59;5054440;28;20071;-53
2021/07/03 00:58:56;;;;;;;5.00;3.97;;;;;;;21.08;100.00;96445.59;5058208;28;20080;-56
2021/07/03 01:01:26;;;;;;;8.20;5.38;;;;;;;21.02;100.00;96449.94;5057113;28;20135;-55
2021/07/03 01:03:54;;;;;;;9.82;7.50;;;;;;;20.52;100.00;96462.19;5059925;28;20068;-54
2021/07/03 01:06:24;;;;;;;9.32;7.15;;;;;;;20.43;100.00;96455.38;5052442;28;20071;-56
2021/07/03 01:08:53;;;;;;;11.30;7.85;;;;;;;20.96;100.00;96453.47;5061688;28;20080;-53
2021/07/03 01:11:25;;;;;;;11.65;7.55;;;;;;;20.92;100.00;96454.09;5054982;28;20064;-52
2021/07/03 01:13:54;;;;;;;13.35;8.57;;;;;;;21.04;100.00;96449.75;5061901;28;20091;-56
2021/07/03 01:16:22;;;;;;;15.00;9.30;;;;;;;21.06;100.00;96467.28;5058314;28;20517;-56
2021/07/03 01:18:52;;;;;;;11.60;8.05;;;;;;;21.03;100.00;96456.16;5059558;28;20482;-52
2021/07/03 01:21:21;;;;;;;13.23;8.15;;;;;;;20.97;100.00;96467.72;5051499;28;20065;-54
2021/07/03 01:23:51;;;;;;;10.07;7.68;;;;;;;20.20;100.00;96461.97;5061149;28;20067;-56
2021/07/03 01:26:20;;;;;;;10.50;8.03;;;;;;;20.29;100.00;96471.44;5056009;28;20076;-55
2021/07/03 01:28:48;;;;;;;12.80;7.45;;;;;;;20.83;100.00;96465.03;5059244;28;20147;-55
2021/07/03 01:31:17;;;;;;;8.75;7.25;;;;;;;20.89;100.00;96467.91;5054073;28;20080;-53
2021/07/03 01:33:45;;;;;;;12.15;7.57;;;;;;;20.97;100.00;96467.72;5059924;28;20467;-56
2021/07/03 01:36:14;;;;;;;9.23;7.68;;;;;;;20.17;100.00;96469.59;5055838;28;20072;-54
2021/07/03 01:38:42;;;;;;;7.75;6.70;;;;;;;20.64;100.00;96463.22;5056334;28;20071;-52
2021/07/03 01:41:12;;;;;;;12.52;7.97;;;;;;;20.65;100.00;96464.03;5056885;28;20486;-56
2021/07/03 01:43:40;;;;;;;13.40;8.47;;;;;;;20.36;100.00;96464.22;5056592;28;20554;-54
2021/07/03 01:46:08;;;;;;;15.23;8.55;;;;;;;20.49;100.00;96465.25;5057103;28;20510;-54
2021/07/03 01:48:38;;;;;;;11.52;8.98;;;;;;;20.44;100.00;96462.34;5054302;28;20067;-57
2021/07/03 01:51:07;;;;;;;11.60;8.70;;;;;;;20.30;100.00;96464.22;5057295;28;20079;-57
2021/07/03 01:53:35;;;;;;;15.48;9.98;;;;;;;20.57;100.00;96468.56;5054752;28;20542;-56
2021/07/03 01:56:04;;;;;;;14.23;10.40;;;;;;;20.76;100.00;96461.56;5051745;28;20060;-55
2021/07/03 01:58:35;;;;;;;12.43;9.80;;;;;;;20.40;100.00;96459.28;5059846;28;20088;-54
2021/07/03 02:01:04;;;;;;;14.20;10.50;;;;;;;20.00;100.00;96455.78;5059857;28;20071;-55
2021/07/03 02:03:33;;;;;;;17.73;10.30;;;;;;;20.28;100.00;96450.22;5052455;28;20075;-50
2021/07/03 02:06:03;;;;;;;14.80;10.63;;;;;;;20.27;100.00;96451.25;5051948;28;20085;-54
2021/07/03 02:08:32;;;;;;;13.77;10.45;;;;;;;19.98;100.00;96447.91;5057908;28;20064;-54
2021/07/03 02:11:01;;;;;;;12.75;9.38;;;;;;;20.91;100.00;96447.09;5058219;28;20076;-56
2021/07/03 02:13:30;;;;;;;11.60;8.23;;;;;;;20.13;100.00;96450.41;5055665;28;20080;-55
2021/07/03 02:16:00;;;;;;;7.07;5.40;;;;;;;19.94;100.00;96446.69;5058449;28;20124;-52
2021/07/03 02:18:29;;;;;;;5.80;4.70;;;;;;;19.73;100.00;96446.88;5052200;28;20077;-54
2021/07/03 02:20:57;;;;;;;8.07;5.05;;;;;;;19.98;100.00;96447.09;5060651;28;20486;-57
2021/07/03 02:23:25;;;;;;;7.05;5.15;;;;;;;20.36;100.00;96442.78;5053110;28;20549;-57
2021/07/03 02:25:54;;;;;;;7.60;5.45;;;;;;;20.32;100.00;96438.06;5053678;28;20084;-57
2021/07/03 02:28:22;;;;;;;8.65;5.65;;;;;;;20.39;100.00;96445.06;5061207;28;20072;-56
2021/07/03 02:30:51;;;;;;;7.78;5.82;;;;;;;20.45;100.00;96439.94;5061230;28;20479;-57
2021/07/03 02:33:22;;;;;;;8.43;6.28;;;;;;;20.44;100.00;96443.59;5050507;28;20060;-55
2021/07/03 02:35:50;;;;;;;9.73;6.20;;;;;;;20.47;100.00;96443.19;5061071;28;20067;-57
2021/07/03 02:38:19;;;;;;;8.10;5.60;;;;;;;19.64;100.00;96436.31;5051439;28;20070;-56
2021/07/03 02:40:48;;;;;;;4.95;4.13;;;;;;;19.68;100.00;96447.44;5054327;28;20104;-56
2021/07/03 02:43:16;;;;;;;4.45;3.47;;;;;;;19.80;100.00;96447.69;5061971;28;20080;-53
2021/07/03 02:46:03;;;;;;;3.88;3.35;;;;;;;19.72;100.00;96447.88;5054816;28;20583;-54
2021/07/03 02:48:33;;;;;;;4.57;3.63;;;;;;;18.79;100.00;96450.97;5059609;28;20102;-54
2021/07/03 02:51:01;;;;;;;4.80;3.47;;;;;;;18.56;100.00;96459.19;5053623;28;20068;-57
2021/07/03 02:53:29;;;;;;;4.53;4.00;;;;;;;18.71;100.00;96459.09;5060920;28;20478;-54
2021/07/03 02:55:59;;;;;;;6.05;5.22;;;;;;;18.94;100.00;96449.00;5056290;28;20084;-57
2021/07/03 02:58:28;;;;;;;6.20;5.55;;;;;;;18.78;100.00;96459.97;5058702;28;20084;-57
2021/07/03 03:00:56;;;;;;;5.97;5.32;;;;;;;19.10;100.00;96452.38;5052443;28;20068;-55
2021/07/03 03:03:24;;;;;;;8.13;5.88;;;;;;;18.98;100.00;96458.25;5057094;28;20072;-55
2021/07/03 03:05:55;;;;;;;7.10;6.10;;;;;;;19.10;100.00;96460.38;5054681;28;20064;-57
2021/07/03 03:08:23;;;;;;;;;;;;;;;19.04;100.00;96462.00;5060119;28;20072;-54
2021/07/03 03:10:51;;;;;;;9.50;7.88;;;;;;;18.76;100.00;96463.91;5058751;28;19971;-54
2021/07/03 03:13:20;;;;;;;10.60;8.27;;;;;;;18.81;100.00;96464.13;5058386;28;20618;-57
2021/07/03 03:15:48;;;;;;;8.32;7.15;;;;;;;19.34;100.00;96462.56;5058797;28;20197;-54
2021/07/03 03:18:17;;;;;;;9.32;7.25;;;;;;;19.39;100.00;96467.28;5062714;28;20530;-56
2021/07/03 03:20:45;;;;;;;8.60;5.78;;;;;;;19.68;100.00;96459.00;5059932;28;20064;-57
2021/07/03 03:23:15;;;;;;;13.18;6.60;;;;;;;19.35;100.00;96466.88;5063538;28;20166;-53
2021/07/03 03:25:43;;;;;;;11.20;7.13;;;;;;;19.53;100.00;96460.97;5056069;28;20069;-55
2021/07/03 03:28:12;;;;;;;19.25;7.68;;;;;;;19.62;100.00;96462.44;5067170;28;20076;-55
2021/07/03 03:30:40;;;;;;;15.90;8.57;;;;;;;19.94;100.00;96460.06;5057796;28;20065;-55
2021/07/03 03:33:08;;;;;;;16.48;8.95;;;;;;;19.19;100.00;96470.69;5062906;28;20083;-54
2021/07/03 03:35:37;;;;;;;10.45;6.90;;;;;;;18.76;100.00;96466.56;5059603;28;20068;-51
2021/07/03 03:38:05;;;;;;;12.77;8.13;;;;;;;19.21;100.00;96470.50;5062696;28;20064;-57
2021/07/03 03:40:36;;;;;;;12.48;8.13;;;;;;;19.54;100.00;96459.94;5059374;28;20091;-55
2021/07/03 03:43:05;;;;;;;13.85;9.02;;;;;;;19.90;100.00;96466.88;5056472;28;20329;-56
2021/07/03 03:45:33;;;;;;;21.35;11.27;;;;;;;19.97;100.00;96469.56;5062622;28;20526;-57
2021/07/03 03:48:02;;;;;;;17.02;11.00;;;;;;;20.18;100.00;96464.03;5060336;28;20052;-57
2021/07/03 03:50:30;;;;;;;12.68;8.35;;;;;;;19.85;100.00;96463.97;5060413;28;20060;-57
2021/07/03 03:53:00;;;;;;;13.50;8.50;;;;;;;20.19;100.00;96465.66;5055745;28;20068;-57
2021/07/03 03:55:29;;;;;;;9.40;7.23;;;;;;;20.10;100.00;96462.38;5058344;28;20483;-57
2021/07/03 03:57:58;;;;;;;14.02;8.13;;;;;;;20.12;100.00;96462.97;5056743;28;20080;-57
2021/07/03 04:00:27;;;;;;;10.90;7.33;;;;;;;21.73;100.00;96459.81;5061725;28;20065;-57
2021/07/03 04:02:55;;;;;;;10.38;7.07;;;;;;;21.75;100.00;96463.09;5052463;28;20523;-55
2021/07/03 04:05:24;;;;;;;11.88;5.63;;;;;;;21.99;99.72;96471.44;5061769;28;20076;-56
2021/07/03 04:07:54;;;;;;;9.00;6.65;;;;;;;22.74;94.27;96468.81;5058162;28;20083;-57
2021/07/03 04:10:23;;;;;;;11.48;6.80;;;;;;;23.54;84.80;96463.44;5059934;28;20549;-55
2021/07/03 04:12:51;;;;;;;12.90;7.28;;;;;;;22.83;93.83;96463.97;5055263;28;20060;-54
2021/07/03 04:15:21;;;;;;;10.10;7.50;;;;;;;22.42;93.99;96473.44;5059347;28;20068;-58
2021/07/03 04:17:49;;;;;;;14.88;8.35;;;;;;;23.85;78.69;96461.59;5052867;28;20064;-55
2021/07/03 04:20:18;;;;;;;9.07;7.75;;;;;;;23.63;78.28;96462.03;5061769;28;20075;-57
2021/07/03 04:22:46;;;;;;;9.25;6.85;;;;;;;24.83;67.32;96469.19;5057015;28;20045;-54
2021/07/03 04:25:16;;;;;;;9.80;6.07;;;;;;;24.95;66.82;96465.66;5061102;28;20526;-57
2021/07/03 04:27:46;;;;;;;8.80;6.47;;;;;;;25.13;65.89;96470.16;5059686;28;20072;-58
2021/07/03 04:30:16;;;;;;;7.63;6.10;;;;;;;25.92;59.68;96468.56;5056387;28;20060;-57
2021/07/03 04:32:46;;;;;;;7.03;6.25;;;;;;;25.74;63.89;96474.09;5058370;28;20061;-58
2021/07/03 04:35:15;;;;;;;6.88;6.18;;;;;;;26.24;59.16;96471.56;5057025;28;20056;-58
2021/07/03 04:37:44;;;;;;;6.97;6.28;;;;;;;26.78;57.41;96464.91;5064541;28;20080;-57
2021/07/03 04:40:12;;;;;;;9.20;7.50;;;;;;;27.01;57.13;96472.00;5058670;28;20076;-58
2021/07/03 04:42:45;;;;;;;9.82;8.20;;;;;;;26.51;60.43;96476.38;5058583;28;20075;-56
2021/07/03 04:45:14;;;;;;;10.45;7.63;;;;;;;26.09;60.89;96479.41;5057693;28;20071;-56
2021/07/03 04:47:42;;;;;;;9.45;8.05;;;;;;;25.40;67.01;96475.88;5056665;28;20068;-53
2021/07/03 04:50:13;;;;;;;11.35;7.60;;;;;;;28.55;52.57;96475.47;5053527;28;20471;-56
2021/07/03 04:52:41;;;;;;;9.13;7.95;;;;;;;30.13;46.95;96468.19;5062888;28;20537;-58
2021/07/03 04:55:11;;;;;;;10.80;8.43;;;;;;;29.08;51.71;96463.69;5058654;28;20127;-57
2021/07/03 04:57:40;;;;;;;9.88;8.38;;;;;;;31.77;42.35;96449.00;5061853;28;20530;-58
2021/07/03 05:00:09;;;;;;;13.02;9.25;;;;;;;31.06;42.89;96459.00;5050525;28;20151;-58
2021/07/03 05:02:38;;;;;;;10.35;9.25;;;;;;;29.01;49.09;96460.41;5063431;28;20076;-58
2021/07/03 05:05:07;;;;;;;10.20;8.48;;;;;;;29.98;48.27;96449.97;5056862;28;20072;-58
2021/07/03 05:07:38;;;;;;;10.43;9.00;;;;;;;30.06;44.64;96447.78;5061833;28;20072;-58
2021/07/03 05:10:07;;;;;;;12.95;8.90;;;;;;;28.37;56.76;96454.94;5054843;28;20641;-58
2021/07/03 05:12:35;;;;;;;11.27;10.07;;;;;;;26.12;67.65;96451.91;5061237;28;20064;-58
2021/07/03 05:15:05;;;;;;;13.05;9.60;;;;;;;27.72;60.83;96445.06;5059878;28;20071;-57
2021/07/03 05:17:34;;;;;;;12.68;10.35;;;;;;;26.33;67.48;96442.25;5060957;28;20064;-55
2021/07/03 05:20:03;;;;;;;13.80;9.70;;;;;;;26.52;68.29;96445.56;5056954;28;20076;-58
2021/07/03 05:22:32;;;;;;;11.07;9.52;;;;;;;26.70;73.77;96441.78;5066559;28;20083;-58
2021/07/03 05:25:02;;;;;;;12.05;9.88;;;;;;;27.10;68.45;96443.44;5054769;28;20037;-56
2021/07/03 05:27:30;;;;;;;13.02;10.10;;;;;;;25.30;86.14;96444.91;5062444;28;20444;-56
2021/07/03 05:29:58;;;;;;;10.85;9.27;;;;;;;25.61;81.62;96442.00;5060662;28;20076;-57
2021/07/03 05:32:27;;;;;;;12.95;10.27;;;;;;;25.67;81.27;96446.41;5059971;28;20072;-52
2021/07/03 05:34:55;;;;;;;13.40;10.45;;;;;;;25.86;81.32;96447.91;5058141;28;20083;-56
2021/07/03 05:37:24;;;;;;;12.05;10.38;;;;;;;26.50;78.05;96443.09;5058308;28;20083;-56
2021/07/03 05:39:52;;;;;;;12.07;10.20;;;;;;;25.57;81.71;96439.78;5055196;28;20545;-56
2021/07/03 05:42:22;;;;;;;14.15;10.32;;;;;;;25.79;83.03;96448.03;5056421;28;20117;-56
2021/07/03 05:44:50;;;;;;;13.50;9.82;;;;;;;25.43;87.45;96453.78;5059926;28;20079;-54
2021/07/03 05:47:20;;;;;;;12.05;9.95;;;;;;;27.41;70.32;96439.28;5050880;28;20515;-55
2021/07/03 05:49:48;;;;;;;11.80;10.07;;;;;;;27.82;66.58;96443.31;5055177;28;20075;-54
2021/07/03 05:52:17;;;;;;;14.50;10.63;;;;;;;27.43;64.41;96462.34;5054609;28;20080;-54
2021/07/03 05:54:45;;;;;;;10.73;9.63;;;;;;;27.34;63.29;96463.84;5059502;28;20064;-54
2021/07/03 05:57:13;;;;;;;10.85;9.05;;;;;;;26.94;61.51;96464.03;5051275;28;20063;-57
2021/07/03 05:59:43;;;;;;;13.73;9.27;;;;;;;27.55;66.42;96458.66;5061327;28;20069;-57
2021/07/03 06:02:11;;;;;;;12.82;9.27;;;;;;;26.82;70.39;96461.44;5054400;28;20076;-57
2021/07/03 06:04:40;;;;;;;10.82;9.40;;;;;;;28.47;59.11;96465.09;5058456;28;20084;-57
2021/07/03 06:07:08;;;;;;;17.13;12.20;;;;;;;28.92;55.88;96469.25;5049360;28;20258;-55
2021/07/03 06:09:36;;;;;;;15.15;12.65;;;;;;;29.48;49.85;96464.97;5059016;28;20060;-55
2021/07/03 06:12:05;;;;;;;12.98;10.23;;;;;;;29.27;50.96;96466.78;5058746;28;20072;-53
2021/07/03 06:14:34;;;;;;;12.63;10.10;;;;;;;29.00;55.01;96469.59;5064171;28;20082;-53
2021/07/03 06:17:04;;;;;;;12.80;10.30;;;;;;;28.43;56.15;96472.94;5048989;28;20072;-55
2021/07/03 06:19:32;;;;;;;14.95;11.07;;;;;;;28.17;56.07;96469.94;5063733;28;20095;-55
2021/07/03 06:22:01;;;;;;;15.38;10.93;;;;;;;26.46;70.59;96471.69;5059757;28;20069;-53
2021/07/03 06:24:48;;;;;;;13.80;10.82;;;;;;;27.72;62.10;96458.59;5062189;28;20163;-48
2021/07/03 06:27:16;;;;;;;13.43;11.05;;;;;;;27.76;62.36;96451.63;5057114;28;20059;-54
2021/07/03 06:29:45;;;;;;;12.35;9.95;;;;;;;25.68;64.02;96458.88;5054332;28;20064;-56
2021/07/03 06:32:14;;;;;;;15.32;10.63;;;;;;;26.43;66.78;96455.13;5058196;28;20478;-55
2021/07/03 06:34:43;;;;;;;12.75;10.38;;;;;;;27.74;59.95;96451.03;5058922;28;20142;-55
2021/07/03 06:37:12;;;;;;;14.20;10.52;;;;;;;26.44;64.02;96454.88;5064448;28;20064;-55
2021/07/03 06:39:41;;;;;;;14.30;10.90;;;;;;;26.34;72.78;96445.78;5057191;28;20060;-55
2021/07/03 06:42:09;;;;;;;12.63;10.38;;;;;;;26.87;67.84;96449.88;5060467;28;20056;-56
2021/07/03 06:44:38;;;;;;;13.15;10.45;;;;;;;27.27;67.09;96449.66;5054200;28;20530;-54
2021/07/03 06:47:06;;;;;;;15.05;10.20;;;;;;;28.07;56.53;96450.88;5056233;28;20075;-54
2021/07/03 06:49:36;;;;;;;15.75;10.35;;;;;;;25.81;71.98;96453.22;5055462;28;20056;-57
2021/07/03 06:52:05;;;;;;;13.40;10.25;;;;;;;26.55;64.84;96444.25;5054747;28;20516;-55
2021/07/03 06:54:34;;;;;;;12.90;10.18;;;;;;;26.56;65.88;96446.69;5053846;28;20060;-57
2021/07/03 06:57:02;;;;;;;14.50;9.80;;;;;;;27.93;56.91;96450.47;5054745;28;20061;-55
2021/07/03 06:59:31;;;;;;;11.95;9.50;;;;;;;27.45;56.88;96448.53;5059317;28;20072;-56
2021/07/03 07:02:04;;;;;;;11.27;8.75;;;;;;;28.75;50.39;96444.97;5061134;28;20120;-57
2021/07/03 07:04:33;;;;;;;10.50;7.40;;;;;;;28.01;42.53;96451.91;5061948;28;20079;-55
2021/07/03 07:07:03;;;;;;;8.48;6.93;;;;;;;27.27;43.08;96456.97;5057970;28;20087;-53
2021/07/03 07:09:32;;;;;;;8.82;7.05;;;;;;;27.78;42.93;96446.78;5049555;28;20063;-54
2021/07/03 07:12:00;;;;;;;9.70;8.02;;;;;;;28.50;42.09;96451.03;5056365;28;20079;-57
2021/07/03 07:14:29;;;;;;;9.43;8.10;;;;;;;28.30;45.58;96443.50;5054205;28;20068;-54
2021/07/03 07:16:58;;;;;;;11.57;8.95;;;;;;;27.77;47.24;96447.84;5058763;28;20076;-56
2021/07/03 07:19:26;;;;;;;13.02;8.07;;;;;;;28.17;47.19;96436.59;5048749;28;20079;-54
2021/07/03 07:21:55;;;;;;;10.18;8.27;;;;;;;27.45;48.17;96446.63;5057540;28;20076;-55
2021/07/03 07:24:24;;;;;;;11.70;8.35;;;;;;;28.27;47.93;96444.00;5056194;28;20083;-56
2021/07/03 07:26:53;;;;;;;10.40;8.38;;;;;;;28.87;46.36;96440.16;5058444;28;20064;-54
2021/07/03 07:29:21;;;;;;;12.52;8.05;;;;;;;28.22;46.38;96438.53;5053034;28;20067;-53
2021/07/03 07:31:50;;;;;;;9.85;7.82;;;;;;;29.37;42.49;96436.13;5057954;28;20071;-53
2021/07/03 07:34:18;;;;;;;10.82;8.18;;;;;;;28.56;44.35;96434.53;5063387;28;20059;-55
2021/07/03 07:36:47;;;;;;;9.77;7.40;;;;;;;29.21;43.65;96431.69;5060338;28;20071;-54
2021/07/03 07:39:15;;;;;;;10.88;8.82;;;;;;;27.75;47.93;96426.41;5052985;28;20656;-52
2021/07/03 07:41:45;;;;;;;11.73;9.10;;;;;;;29.75;44.82;96420.53;5052567;28;20064;-54
2021/07/03 07:44:13;;;;;;;14.10;9.10;;;;;;;28.31;46.04;96420.72;5062753;28;20068;-53
2021/07/03 07:46:42;;;;;;;11.35;8.45;;;;;;;29.58;43.71;96415.28;5052413;28;20072;-53
2021/07/03 07:49:10;;;;;;;11.40;9.35;;;;;;;28.67;46.21;96418.34;5059878;28;20064;-54
2021/07/03 07:51:39;;;;;;;12.10;9.52;;;;;;;30.01;44.79;96413.25;5054208;28;20529;-56
2021/07/03 07:54:07;;;;;;;12.73;9.27;;;;;;;28.15;51.25;96414.34;5060220;28;20053;-56
2021/07/03 07:56:36;;;;;;;13.73;10.43;;;;;;;27.85;47.44;96406.75;5055279;28;20372;-57
2021/07/03 07:59:06;;;;;;;11.77;8.90;;;;;;;28.57;45.98;96403.59;5059285;28;20079;-55
2021/07/03 08:01:34;;;;;;;10.30;9.18;;;;;;;28.13;47.13;96402.94;5060115;28;20075;-56
2021/07/03 08:04:03;;;;;;;10.60;8.65;;;;;;;29.61;43.69;96397.66;5067010;28;20056;-56
2021/07/03 08:06:31;;;;;;;14.23;9.00;;;;;;;29.57;45.85;96391.91;5056149;28;20134;-56
2021/07/03 08:09:00;;;;;;;9.73;7.60;;;;;;;30.17;39.28;96395.84;5064300;28;20119;-56
2021/07/03 08:11:28;;;;;;;10.05;7.68;;;;;;;28.36;41.70;96399.06;5058322;28;20091;-52
2021/07/03 08:14:15;;;;;;;9.93;7.88;;;;;;;28.84;41.73;96394.56;5058831;28;20048;-54
2021/07/03 08:16:43;;;;;;;10.75;6.90;;;;;;;30.03;39.61;96392.84;5057366;28;20090;-56
2021/07/03 08:19:12;;;;;;;9.68;6.78;;;;;;;27.34;37.71;96398.03;5064298;28;20063;-57
2021/07/03 08:21:40;;;;;;;8.18;6.65;;;;;;;27.54;39.66;96400.97;5066458;28;20067;-56
2021/07/03 08:24:09;;;;;;;7.38;6.15;;;;;;;29.12;37.73;96403.44;5057053;28;20057;-57
2021/07/03 08:26:37;;;;;;;7.88;6.50;;;;;;;28.95;39.28;96400.84;5065449;28;20060;-54
2021/07/03 08:29:07;;;;;;;6.85;5.80;;;;;;;29.32;36.37;96403.53;5058539;28;20153;-54
2021/07/03 08:31:37;;;;;;;8.43;6.20;;;;;;;29.58;37.01;96397.06;5058946;28;20056;-56
2021/07/03 08:34:06;;;;;;;10.00;6.63;;;;;;;29.72;35.67;96388.44;5057787;28;20060;-53
2021/07/03 08:36:34;;;;;;;8.05;6.35;;;;;;;30.93;35.72;96386.03;5059528;28;20053;-55
2021/07/03 08:39:03;;;;;;;8.65;6.80;;;;;;;30.15;36.48;96379.00;5055602;28;20079;-54
2021/07/03 08:41:33;;;;;;;6.55;5.88;;;;;;;30.44;34.98;96384.72;5063718;28;20063;-52
2021/07/03 08:44:01;;;;;;;;;;;;;;;29.58;37.05;96380.75;5061198;28;20071;-56
2021/07/03 08:46:30;;;;;;;8.90;5.90;;;;;;;30.14;34.73;96366.47;5060898;28;19959;-56
2021/07/03 08:49:02;;;;;;;6.97;5.95;;;;;;;29.27;36.40;96368.16;5055887;28;20299;-55
2021/07/03 08:51:31;;;;;;;7.30;5.88;;;;;;;29.22;38.05;96362.72;5063734;28;20064;-56
2021/07/03 08:54:01;;;;;;;8.20;6.05;;;;;;;30.78;35.21;96359.66;5052471;28;20074;-55
2021/07/03 08:56:29;;;;;;;7.13;5.82;;;;;;;30.85;33.61;96364.81;5065172;28;20703;-55
2021/07/03 08:58:58;;;;;;;9.30;5.47;;;;;;;30.09;35.36;96363.75;5051708;28;20087;-55
2021/07/03 09:01:26;;;;;;;6.88;5.85;;;;;;;29.68;37.08;96361.00;5066577;28;20072;-54
2021/07/03 09:03:56;;;;;;;6.65;5.47;;;;;;;29.20;34.18;96354.84;5059130;28;20068;-55
2021/07/03 09:06:34;;;;;;;9.27;4.78;;;;;;;28.56;35.78;96360.44;5060984;28;20462;-52
2021/07/03 09:09:02;;;;;;;7.30;5.47;;;;;;;31.01;32.75;96360.16;5058885;28;20068;-57
2021/07/03 09:11:32;;;;;;;7.75;5.60;;;;;;;30.52;34.33;96358.84;5062667;28;20079;-53
2021/07/03 09:14:05;;;;;;;6.80;5.57;;;;;;;29.91;34.38;96364.28;5056939;28;20079;-57
2021/07/03 09:16:34;;;;;;;7.20;5.53;;;;;;;30.30;33.46;96364.59;5061706;28;20083;-53
2021/07/03 09:19:04;;;;;;;7.00;5.88;;;;;;;30.64;34.55;96359.41;5060454;28;20068;-52
2021/07/03 09:21:33;;;;;;;8.05;5.90;;;;;;;29.99;34.94;96363.75;5059869;28;20076;-53
2021/07/03 09:24:12;;;;;;;6.93;5.53;;;;;;;30.29;33.34;96360.25;5059685;28;20070;-53
2021/07/03 09:26:41;;;;;;;8.65;6.82;;;;;;;28.68;37.59;96361.06;5057533;28;20068;-54
2021/07/03 09:29:11;;;;;;;7.25;5.95;;;;;;;29.72;37.04;96355.81;5058534;28;20075;-56
2021/07/03 09:31:42;;;;;;;10.75;6.30;;;;;;;30.78;34.45;96356.94;5060465;28;20068;-56
2021/07/03 09:34:14;;;;;;;7.97;6.10;;;;;;;30.85;32.01;96354.75;5058764;28;20344;-55
2021/07/03 09:36:44;;;;;;;6.90;5.63;;;;;;;30.79;32.69;96346.88;5059963;28;20455;-54
2021/07/03 09:39:22;;;;;;;5.82;5.22;;;;;;;30.19;31.98;96354.81;5055733;28;20069;-56
2021/07/03 09:41:50;;;;;;;7.00;5.22;;;;;;;29.89;35.72;96339.28;5052761;28;20052;-55
2021/07/03 09:44:19;;;;;;;6.43;5.22;;;;;;;30.14;32.13;96341.16;5057547;28;20072;-54
2021/07/03 09:46:48;;;;;;;5.68;5.10;;;;;;;28.99;33.93;96345.78;5058264;28;20074;-54
2021/07/03 09:49:18;;;;;;;5.10;4.30;;;;;;;29.11;32.43;96353.69;5065197;28;20072;-55
2021/07/03 09:51:50;;;;;;;6.73;5.07;;;;;;;30.08;32.00;96343.09;5057233;28;20076;-54
2021/07/03 09:54:20;;;;;;;5.50;4.90;;;;;;;29.54;32.13;96344.34;5063389;28;20052;-54
2021/07/03 09:56:58;;;;;;;7.15;5.05;;;;;;;30.50;32.00;96344.72;5061669;28;20071;-54
2021/07/03 09:59:27;;;;;;;6.32;5.30;;;;;;;30.34;30.99;96333.03;5053507;28;20083;-55
2021/07/03 10:01:56;;;;;;;6.70;4.97;;;;;;;30.15;33.25;96342.81;5055799;28;20084;-56
2021/07/03 10:04:24;;;;;;;5.13;4.63;;;;;;;30.69;32.72;96336.78;5067828;28;20075;-56
2021/07/03 10:07:01;;;;;;;10.05;5.13;;;;;;;30.90;31.42;96346.56;5057487;28;20466;-56
2021/07/03 10:09:33;;;;;;;5.90;5.10;;;;;;;30.69;32.98;96342.22;5056520;28;20080;-54
2021/07/03 10:12:05;;;;;;;6.43;5.03;;;;;;;30.55;34.18;96339.25;5055935;28;20059;-55
2021/07/03 10:14:38;;;;;;;6.70;5.00;;;;;;;30.90;34.71;96338.41;5062842;28;20600;-55
2021/07/03 10:17:07;;;;;;;5.82;5.00;;;;;;;31.52;30.74;96335.41;5051509;28;20064;-55
2021/07/03 10:19:37;;;;;;;6.03;5.00;;;;;;;30.89;33.96;96338.66;5062034;28;20530;-54
2021/07/03 10:22:18;;;;;;;7.13;5.30;;;;;;;31.11;32.85;96328.25;5056860;28;20061;-52
2021/07/03 10:24:50;;;;;;;5.68;4.78;;;;;;;31.33;31.04;96327.09;5054255;28;20424;-53
2021/07/03 10:27:23;;;;;;;6.50;5.30;;;;;;;31.02;32.93;96324.47;5055579;28;20174;-52
2021/07/03 10:29:54;;;;;;;5.97;5.38;;;;;;;31.15;32.09;96323.06;5063142;28;20488;-55
2021/07/03 10:32:25;;;;;;;6.70;5.22;;;;;;;31.33;31.09;96324.34;5052045;28;20090;-54
2021/07/03 10:34:54;;;;;;;8.48;5.65;;;;;;;31.47;32.67;96317.19;5052876;28;20083;-54
2021/07/03 10:37:34;;;;;;;7.43;5.13;;;;;;;31.76;31.79;96321.91;5056322;28;20454;-53
2021/07/03 10:40:14;;;;;;;6.45;5.35;;;;;;;31.78;32.29;96317.81;5059260;28;20130;-56
2021/07/03 10:42:42;;;;;;;7.22;5.68;;;;;;;32.04;30.21;96320.38;5052233;28;20068;-54
2021/07/03 10:45:12;;;;;;;7.00;5.40;;;;;;;30.34;32.16;96319.44;5061253;28;20044;-52
2021/07/03 10:47:42;;;;;;;6.20;5.40;;;;;;;30.57;31.78;96312.59;5062361;28;20065;-56
2021/07/03 10:50:19;;;;;;;6.53;5.25;;;;;;;31.80;31.34;96312.91;5059693;28;20052;-53
2021/07/03 10:52:50;;;;;;;6.13;5.07;;;;;;;31.99;31.20;96310.31;5060291;28;20080;-53
2021/07/03 10:55:30;;;;;;;6.22;5.10;;;;;;;31.81;32.53;96297.34;5061125;28;20075;-55
2021/07/03 10:58:00;;;;;;;6.32;5.38;;;;;;;31.90;33.08;96296.47;5057236;28;20071;-56
2021/07/03 11:00:28;;;;;;;6.13;5.53;;;;;;;31.94;32.41;96298.66;5058859;28;20067;-55
2021/07/03 11:02:57;;;;;;;7.13;5.63;;;;;;;31.88;34.17;96304.13;5057553;28;20068;-55
2021/07/03 11:05:33;;;;;;;6.03;5.43;;;;;;;31.16;33.17;96300.16;5057307;28;20064;-56
2021/07/03 11:08:23;;;;;;;6.50;5.53;;;;;;;31.04;34.31;96286.03;5053880;28;20060;-56
2021/07/03 11:10:52;;;;;;;7.18;5.13;;;;;;;31.02;34.93;96290.97;5055308;28;20200;-56
2021/07/03 11:13:23;;;;;;;6.45;4.90;;;;;;;30.65;34.03;96281.25;5060863;28;20052;-54
2021/07/03 11:15:51;;;;;;;6.13;4.88;;;;;;;31.41;30.36;96277.41;5052313;28;20084;-56
2021/07/03 11:18:20;;;;;;;7.30;5.15;;;;;;;29.85;32.98;96281.09;5059229;28;20525;-54
2021/07/03 11:20:48;;;;;;;5.30;4.50;;;;;;;30.83;31.60;96275.22;5055033;28;20104;-57
2021/07/03 11:23:20;;;;;;;5.10;4.60;;;;;;;31.44;29.14;96271.41;5060051;28;20447;-56
2021/07/03 11:25:50;;;;;;;5.00;4.53;;;;;;;31.83;29.17;96271.41;5054116;28;20506;-54
2021/07/03 11:28:19;;;;;;;8.43;5.00;;;;;;;31.73;29.40;96273.38;5062375;28;20072;-56
2021/07/03 11:30:57;;;;;;;5.90;4.85;;;;;;;31.75;32.28;96269.28;5055881;28;20068;-51
2021/07/03 11:33:28;;;;;;;5.70;4.70;;;;;;;31.27;34.45;96268.22;5067826;28;20076;-54
2021/07/03 11:35:57;;;;;;;6.13;5.05;;;;;;;30.37;33.21;96274.53;5056046;28;20068;-49
2021/07/03 11:38:26;;;;;;;7.13;5.13;;;;;;;30.55;33.28;96265.78;5062557;28;20068;-54